Time;durP1;ratioP1;P1;durP2;ratioP2;P2;SDS_P1;SDS_P2;PMS_P1;PMS_P2;Temp;Humidity;BMP_temperature;BMP_pressure;BME280_temperature;BME280_humidity;BME280_pressure;Samples;Min_cycle;Max_cycle;Signal;HPM_P1;HPM_P2
2023/07/25 00:01:22;;;;;;;2.00;1.40;;;21.70;81.80;;;;;;5031681;28;20124;-40
2023/07/25 00:03:48;;;;;;;3.15;1.50;;;20.40;81.10;;;;;;5030909;28;20144;-40
2023/07/25 00:06:16;;;;;;;2.00;1.25;;;;;;;;;;5031288;28;20056;-34
2023/07/25 00:08:43;;;;;;;1.95;1.30;;;20.50;81.10;;;;;;5031007;28;20098;-39
2023/07/25 00:11:13;;;;;;;2.40;1.60;;;20.80;72.40;;;;;;5031151;28;20140;-36
2023/07/25 00:13:40;;;;;;;3.03;1.40;;;;;;;;;;5030299;28;20053;-37
2023/07/25 00:16:07;;;;;;;2.08;1.27;;;;;;;;;;5030676;28;20137;-37
2023/07/25 00:18:35;;;;;;;1.90;1.20;;;20.90;65.50;;;;;;5031040;28;20045;-35
2023/07/25 00:21:02;;;;;;;2.42;1.42;;;;;;;;;;5030872;28;20057;-35
2023/07/25 00:23:28;;;;;;;2.28;1.38;;;20.00;80.70;;;;;;5030845;28;20140;-39
2023/07/25 00:25:55;;;;;;;3.85;1.23;;;20.90;76.50;;;;;;5030521;28;20141;-40
2023/07/25 00:28:22;;;;;;;1.90;1.30;;;20.30;70.30;;;;;;5029738;28;20120;-36
2023/07/25 00:30:49;;;;;;;2.05;1.40;;;19.70;80.20;;;;;;5011197;28;20062;-39
2023/07/25 00:33:16;;;;;;;2.40;1.35;;;;;;;;;;5010699;28;20129;-37
2023/07/25 00:35:51;;;;;;;2.17;1.50;;;21.20;81.30;;;;;;5011016;28;20141;-37
2023/07/25 00:38:17;;;;;;;1.83;1.30;;;20.60;80.60;;;;;;5010802;28;20128;-39
2023/07/25 00:40:44;;;;;;;1.77;1.40;;;;;;;;;;5010989;28;20148;-39
2023/07/25 00:43:11;;;;;;;1.88;1.20;;;20.70;81.50;;;;;;5010856;28;20057;-40
2023/07/25 00:45:38;;;;;;;2.53;1.50;;;;;;;;;;5018081;28;20084;-36
2023/07/25 00:48:05;;;;;;;2.63;1.25;;;20.60;81.40;;;;;;5030455;28;20060;-39
2023/07/25 00:50:32;;;;;;;1.98;1.30;;;;;;;;;;5030466;28;20128;-37
2023/07/25 00:53:01;;;;;;;1.80;1.20;;;20.00;71.00;;;;;;5029979;28;20061;-40
2023/07/25 00:55:28;;;;;;;2.22;1.35;;;20.80;80.60;;;;;;5030567;28;20137;-36
2023/07/25 00:57:54;;;;;;;2.20;1.55;;;20.50;80.50;;;;;;5030428;28;20050;-40
2023/07/25 01:00:21;;;;;;;2.75;1.40;;;20.10;73.40;;;;;;5030637;28;20132;-40
2023/07/25 01:02:48;;;;;;;2.15;1.45;;;;;;;;;;5018005;28;20140;-38
2023/07/25 01:05:15;;;;;;;3.13;1.85;;;20.40;72.10;;;;;;5026799;28;20136;-40
2023/07/25 01:07:42;;;;;;;2.35;1.20;;;20.00;81.00;;;;;;5030292;28;20102;-40
2023/07/25 01:10:10;;;;;;;1.75;1.23;;;20.20;81.20;;;;;;5030607;28;20128;-38
2023/07/25 01:12:37;;;;;;;2.45;1.50;;;;;;;;;;5029766;28;20136;-37
2023/07/25 01:15:04;;;;;;;1.95;1.30;;;20.60;80.20;;;;;;5030244;28;20136;-39
2023/07/25 01:17:32;;;;;;;3.15;1.50;;;;;;;;;;5029825;28;20549;-37
2023/07/25 01:19:58;;;;;;;2.65;1.50;;;20.40;80.40;;;;;;5012489;28;20517;-40
2023/07/25 01:22:25;;;;;;;2.50;1.20;;;19.80;80.20;;;;;;5010279;28;20152;-38
2023/07/25 01:24:55;;;;;;;1.95;1.40;;;20.90;81.50;;;;;;5010122;28;20060;-40
2023/07/25 01:27:22;;;;;;;2.42;1.33;;;;;;;;;;5009044;28;20495;-38
2023/07/25 01:29:49;;;;;;;2.20;1.45;;;21.10;80.80;;;;;;5010161;28;20585;-40
2023/07/25 01:32:16;;;;;;;2.53;1.58;;;;;;;;;;5009838;28;20138;-41
2023/07/25 01:34:42;;;;;;;2.58;1.55;;;21.70;81.00;;;;;;5010014;28;20133;-39
2023/07/25 01:37:09;;;;;;;2.63;1.20;;;21.00;80.80;;;;;;5021734;28;20163;-40
2023/07/25 01:39:36;;;;;;;1.38;1.10;;;;;;;;;;5024106;28;20132;-37
2023/07/25 01:42:05;;;;;;;2.15;1.40;;;20.70;65.00;;;;;;5010002;28;20128;-34
2023/07/25 01:44:32;;;;;;;3.85;1.40;;;20.50;80.50;;;;;;5009828;28;20054;-40
2023/07/25 01:46:59;;;;;;;2.38;1.30;;;;;;;;;;5009510;28;20128;-38
2023/07/25 01:49:26;;;;;;;2.03;1.30;;;20.40;80.80;;;;;;5010092;28;20129;-41
2023/07/25 01:51:53;;;;;;;1.77;1.40;;;;;;;;;;5013974;28;20046;-37
2023/07/25 01:54:19;;;;;;;2.20;1.40;;;19.70;80.40;;;;;;5029124;28;20053;-41
2023/07/25 01:56:46;;;;;;;1.73;1.30;;;21.70;81.00;;;;;;5029443;28;20049;-41
2023/07/25 01:59:14;;;;;;;2.33;1.27;;;20.60;64.90;;;;;;5029462;28;20064;-39
2023/07/25 02:01:41;;;;;;;2.20;1.20;;;21.30;70.60;;;;;;5029461;28;20053;-39
2023/07/25 02:04:07;;;;;;;1.88;1.27;;;20.70;81.00;;;;;;5029359;28;20132;-40
2023/07/25 02:06:34;;;;;;;2.35;1.48;;;21.50;81.00;;;;;;5029485;28;20073;-41
2023/07/25 02:09:01;;;;;;;2.03;1.25;;;;;;;;;;5028634;28;20067;-38
2023/07/25 02:11:28;;;;;;;2.25;1.40;;;19.60;70.10;;;;;;5029061;28;20056;-37
2023/07/25 02:13:55;;;;;;;1.92;1.30;;;20.30;78.20;;;;;;5029001;28;20136;-40
2023/07/25 02:16:23;;;;;;;1.42;1.17;;;21.20;72.80;;;;;;5029323;28;20132;-39
2023/07/25 02:18:49;;;;;;;2.47;1.33;;;20.20;70.70;;;;;;5029058;28;20045;-39
2023/07/25 02:21:16;;;;;;;1.77;1.27;;;20.50;81.20;;;;;;5029084;28;20486;-40
2023/07/25 02:23:43;;;;;;;1.48;1.20;;;21.60;81.00;;;;;;5029035;28;20060;-40
2023/07/25 02:26:10;;;;;;;3.10;1.42;;;;;;;;;;5013781;28;20053;-36
2023/07/25 02:28:37;;;;;;;2.83;1.45;;;;;;;;;;5008868;28;20133;-35
2023/07/25 02:31:04;;;;;;;2.85;1.35;;;;;;;;;;5009435;28;20133;-38
2023/07/25 02:33:32;;;;;;;2.03;1.10;;;19.90;80.10;;;;;;5009006;28;20577;-39
2023/07/25 02:35:59;;;;;;;1.88;1.30;;;;;;;;;;5010143;28;20132;-39
2023/07/25 02:38:26;;;;;;;3.03;1.30;;;;;;;;;;5028312;28;20056;-37
2023/07/25 02:40:53;;;;;;;3.08;1.55;;;20.40;81.10;;;;;;5028119;28;20060;-39
2023/07/25 02:43:22;;;;;;;2.47;1.50;;;20.10;80.20;;;;;;5009762;28;20046;-40
2023/07/25 02:45:49;;;;;;;1.55;1.25;;;20.60;80.80;;;;;;5008952;28;20456;-38
2023/07/25 02:48:15;;;;;;;3.38;1.50;;;19.50;80.30;;;;;;5009017;28;20508;-39
2023/07/25 02:50:43;;;;;;;1.27;1.13;;;20.50;64.80;;;;;;5008892;28;20141;-37
2023/07/25 02:53:10;;;;;;;1.30;1.10;;;;;;;;;;5009016;28;20413;-39
2023/07/25 02:55:38;;;;;;;2.13;1.40;;;;;;;;;;5009122;28;20137;-40
2023/07/25 02:58:05;;;;;;;2.55;1.20;;;;;;;;;;5010259;28;20060;-38
2023/07/25 03:00:31;;;;;;;2.33;1.30;;;20.10;80.90;;;;;;5008979;28;20050;-40
2023/07/25 03:02:58;;;;;;;2.45;1.33;;;20.40;81.20;;;;;;5015890;28;20121;-41
2023/07/25 03:05:27;;;;;;;2.00;1.35;;;20.90;68.70;;;;;;5017540;28;20498;-41
2023/07/25 03:07:55;;;;;;;2.53;1.40;;;20.10;80.10;;;;;;5018590;28;20124;-38
2023/07/25 03:10:22;;;;;;;2.03;1.30;;;19.50;79.80;;;;;;5028436;28;20136;-41
2023/07/25 03:12:49;;;;;;;3.88;1.30;;;20.30;76.00;;;;;;5023372;28;20141;-39
2023/07/25 03:15:16;;;;;;;2.90;1.40;;;19.40;79.80;;;;;;5015377;28;20073;-42
2023/07/25 03:17:42;;;;;;;1.67;1.27;;;20.10;80.10;;;;;;5019282;28;20050;-41
2023/07/25 03:20:10;;;;;;;2.20;1.50;;;21.00;72.60;;;;;;5017778;28;20125;-39
2023/07/25 03:22:37;;;;;;;1.77;1.40;;;20.50;81.20;;;;;;5017463;28;20129;-41
2023/07/25 03:25:05;;;;;;;4.68;1.45;;;19.70;71.40;;;;;;5019472;28;20045;-38
2023/07/25 03:27:32;;;;;;;1.42;1.20;;;20.20;80.10;;;;;;5017704;28;20445;-42
2023/07/25 03:29:59;;;;;;;2.97;1.50;;;20.60;76.70;;;;;;5017778;28;20041;-40
2023/07/25 03:32:26;;;;;;;2.35;1.42;;;;;;;;;;5016948;28;20072;-38
2023/07/25 03:34:52;;;;;;;4.53;1.45;;;20.30;80.20;;;;;;5013809;28;20129;-41
2023/07/25 03:37:19;;;;;;;2.00;1.38;;;20.90;80.80;;;;;;5015987;28;20622;-40
2023/07/25 03:39:46;;;;;;;2.25;1.35;;;20.70;70.70;;;;;;5019565;28;20144;-37
2023/07/25 03:42:14;;;;;;;1.67;1.30;;;20.00;80.10;;;;;;5028409;28;20148;-38
2023/07/25 03:44:41;;;;;;;1.80;1.40;;;19.70;80.70;;;;;;5028026;28;20081;-41
2023/07/25 03:47:07;;;;;;;2.42;1.60;;;20.80;80.40;;;;;;5027893;28;20140;-39
2023/07/25 03:49:34;;;;;;;2.10;1.40;;;20.40;68.00;;;;;;5026975;28;20128;-40
2023/07/25 03:52:01;;;;;;;1.50;1.20;;;21.40;80.60;;;;;;5031320;28;20125;-40
2023/07/25 03:54:27;;;;;;;2.42;1.48;;;20.20;80.30;;;;;;5031481;28;20045;-41
2023/07/25 03:56:54;;;;;;;4.47;1.52;;;;;;;;;;5031540;28;20095;-38
2023/07/25 03:59:22;;;;;;;3.10;1.50;;;20.40;81.30;;;;;;5031153;28;20122;-37
2023/07/25 04:01:49;;;;;;;2.40;1.33;;;20.00;80.00;;;;;;5031425;28;20147;-41
2023/07/25 04:04:16;;;;;;;2.83;1.45;;;20.90;80.60;;;;;;5030853;28;20060;-39
2023/07/25 04:06:43;;;;;;;2.17;1.27;;;;;;;;;;5030015;28;20486;-38
2023/07/25 04:09:10;;;;;;;1.75;1.30;;;20.70;80.70;;;;;;5031081;28;20383;-41
2023/07/25 04:11:36;;;;;;;1.70;1.20;;;20.80;80.60;;;;;;5031197;28;20088;-39
2023/07/25 04:14:03;;;;;;;2.97;1.50;;;20.50;73.20;;;;;;5031006;28;20387;-41
2023/07/25 04:16:31;;;;;;;3.83;1.30;;;20.30;80.80;;;;;;5031067;28;20064;-40
2023/07/25 04:18:58;;;;;;;1.90;1.45;;;;;;;;;;5030866;28;20549;-37
2023/07/25 04:21:25;;;;;;;1.85;1.23;;;;;;;;;;5030066;28;20486;-38
2023/07/25 04:23:52;;;;;;;3.38;1.40;;;20.50;80.60;;;;;;5031156;28;20472;-39
2023/07/25 04:26:19;;;;;;;2.83;1.27;;;;;;;;;;5030607;28;20125;-37
2023/07/25 04:28:48;;;;;;;2.30;1.40;;;20.30;80.50;;;;;;5030846;28;20046;-38
2023/07/25 04:31:15;;;;;;;2.03;1.30;;;;;;;;;;5027339;28;20073;-40
2023/07/25 04:33:43;;;;;;;2.45;1.40;;;20.60;74.20;;;;;;5010832;28;20129;-40
2023/07/25 04:36:09;;;;;;;2.03;1.30;;;20.50;72.90;;;;;;5013275;28;20557;-40
2023/07/25 04:38:36;;;;;;;1.58;1.20;;;20.10;80.40;;;;;;5021778;28;20133;-39
2023/07/25 04:41:04;;;;;;;2.05;1.30;;;19.40;80.00;;;;;;5010995;28;20049;-40
2023/07/25 04:43:31;;;;;;;2.03;1.40;;;20.40;80.60;;;;;;5010660;28;20081;-40
2023/07/25 04:45:58;;;;;;;2.10;1.30;;;;;;;;;;5010672;28;20050;-36
2023/07/25 04:48:24;;;;;;;1.75;1.20;;;20.40;81.40;;;;;;5010623;28;20049;-40
2023/07/25 04:50:52;;;;;;;1.70;1.30;;;20.50;81.10;;;;;;5010958;28;20132;-40
2023/07/25 04:53:19;;;;;;;2.42;1.25;;;21.40;72.20;;;;;;5018735;28;20417;-40
2023/07/25 04:55:46;;;;;;;2.95;1.40;;;;;;;;;;5016222;28;20053;-37
2023/07/25 04:58:13;;;;;;;1.33;1.10;;;20.40;81.00;;;;;;5010588;28;20077;-40
2023/07/25 05:00:40;;;;;;;2.90;1.33;;;20.10;76.60;;;;;;5010541;28;20075;-41
2023/07/25 05:03:06;;;;;;;2.65;1.40;;;20.30;71.10;;;;;;5029159;28;20046;-38
2023/07/25 05:05:33;;;;;;;2.90;1.40;;;20.60;81.20;;;;;;5030284;28;20488;-41
2023/07/25 05:08:01;;;;;;;2.10;1.20;;;20.00;81.40;;;;;;5030392;28;20124;-41
2023/07/25 05:10:28;;;;;;;2.33;1.13;;;;;;;;;;5030158;28;20404;-40
2023/07/25 05:12:55;;;;;;;1.90;1.33;;;;;;;;;;5013181;28;20182;-38
2023/07/25 05:15:22;;;;;;;1.73;1.13;;;20.30;65.00;;;;;;5010288;28;20053;-41
2023/07/25 05:17:49;;;;;;;2.28;1.30;;;;;;;;;;5010455;28;20129;-38
2023/07/25 05:20:16;;;;;;;2.25;1.30;;;;;;;;;;5010432;28;20137;-41
2023/07/25 05:22:43;;;;;;;2.85;1.40;;;;;;;;;;5010198;28;20128;-37
2023/07/25 05:25:11;;;;;;;2.50;1.35;;;19.70;81.30;;;;;;5010129;28;20125;-40
2023/07/25 05:27:38;;;;;;;1.27;1.17;;;20.10;81.00;;;;;;5011139;28;20578;-40
2023/07/25 05:30:06;;;;;;;2.60;1.42;;;20.00;81.10;;;;;;5016774;28;20043;-39
2023/07/25 05:32:33;;;;;;;1.77;1.33;;;;;;;;;;5029683;28;20246;-37
2023/07/25 05:35:00;;;;;;;3.78;1.42;;;20.10;81.50;;;;;;5029825;28;20128;-40
2023/07/25 05:37:34;;;;;;;2.35;1.08;;;20.50;80.90;;;;;;5029398;28;20124;-41
2023/07/25 05:40:01;;;;;;;2.03;1.30;;;20.20;81.20;;;;;;5029826;28;20133;-41
2023/07/25 05:42:29;;;;;;;2.35;1.00;;;20.40;78.50;;;;;;5029227;28;20053;-40
2023/07/25 05:44:56;;;;;;;1.38;1.23;;;20.10;77.60;;;;;;5025502;28;20146;-40
2023/07/25 05:47:23;;;;;;;2.03;1.50;;;19.40;68.10;;;;;;5009847;28;20130;-40
2023/07/25 05:49:50;;;;;;;3.70;1.40;;;;;;;;;;5009920;28;20129;-38
2023/07/25 05:52:17;;;;;;;1.92;1.30;;;20.40;81.60;;;;;;5009827;28;20054;-40
2023/07/25 05:54:44;;;;;;;2.80;1.48;;;20.30;65.10;;;;;;5009618;28;20058;-38
2023/07/25 05:57:11;;;;;;;1.70;1.25;;;20.80;82.10;;;;;;5011083;28;20140;-40
2023/07/25 05:59:40;;;;;;;2.92;1.25;;;20.20;65.10;;;;;;5029553;28;20129;-37
2023/07/25 06:02:07;;;;;;;1.80;1.17;;;20.20;81.70;;;;;;5021753;28;20050;-40
2023/07/25 06:04:33;;;;;;;1.85;1.25;;;20.10;81.30;;;;;;5009311;28;20054;-39
2023/07/25 06:07:00;;;;;;;3.30;1.40;;;19.90;68.90;;;;;;5020435;28;20573;-37
2023/07/25 06:09:27;;;;;;;1.92;1.10;;;;;;;;;;5029002;28;20470;-40
2023/07/25 06:11:55;;;;;;;1.90;1.17;;;;;;;;;;5028841;28;20481;-37
2023/07/25 06:14:22;;;;;;;2.40;1.38;;;20.70;81.30;;;;;;5029080;28;20069;-40
2023/07/25 06:16:50;;;;;;;1.95;1.30;;;20.10;70.90;;;;;;5029001;28;20058;-39
2023/07/25 06:19:17;;;;;;;1.75;1.17;;;20.10;68.70;;;;;;5017502;28;20106;-40
2023/07/25 06:21:43;;;;;;;1.17;1.08;;;19.40;80.80;;;;;;5009389;28;20046;-41
2023/07/25 06:24:10;;;;;;;1.77;1.15;;;20.40;81.10;;;;;;5009107;28;20088;-40
2023/07/25 06:26:38;;;;;;;2.28;1.20;;;;;;;;;;5009451;28;20085;-37
2023/07/25 06:29:05;;;;;;;1.63;1.10;;;;;;;;;;5009345;28;20046;-41
2023/07/25 06:31:31;;;;;;;4.00;1.35;;;19.10;66.60;;;;;;5009288;28;20137;-39
2023/07/25 06:33:59;;;;;;;1.80;1.25;;;20.20;81.30;;;;;;5009147;28;20440;-31
2023/07/25 06:36:26;;;;;;;1.85;1.10;;;19.70;81.20;;;;;;5014973;28;20077;-40
2023/07/25 06:38:53;;;;;;;3.15;1.38;;;;;;;;;;5010241;28;20056;-37
2023/07/25 06:41:20;;;;;;;2.88;1.25;;;21.40;81.60;;;;;;5009382;28;20050;-40
2023/07/25 06:43:46;;;;;;;2.22;1.20;;;20.50;72.60;;;;;;5008937;28;20060;-39
2023/07/25 06:46:14;;;;;;;1.75;1.27;;;;;;;;;;5009273;28;20060;-38
2023/07/25 06:48:41;;;;;;;2.42;1.33;;;;;;;;;;5008940;28;20215;-40
2023/07/25 06:51:09;;;;;;;2.88;1.20;;;20.20;65.10;;;;;;5008996;28;20129;-36
2023/07/25 06:53:36;;;;;;;2.45;1.30;;;;;;;;;;5012603;28;20056;-37
2023/07/25 06:56:02;;;;;;;1.92;1.15;;;20.50;81.00;;;;;;5028961;28;20045;-38
2023/07/25 06:58:29;;;;;;;1.67;1.38;;;20.20;81.40;;;;;;5028603;28;20053;-37
2023/07/25 07:00:56;;;;;;;2.80;1.25;;;;;;;;;;5028647;28;20125;-38
2023/07/25 07:03:23;;;;;;;2.25;1.20;;;19.80;80.70;;;;;;5028532;28;20128;-41
2023/07/25 07:05:53;;;;;;;2.20;1.40;;;20.20;64.90;;;;;;5028515;28;20056;-40
2023/07/25 07:08:21;;;;;;;1.70;1.20;;;20.20;64.90;;;;;;5028497;28;20579;-38
2023/07/25 07:10:52;;;;;;;1.90;1.30;;;20.20;64.90;;;;;;5010607;28;20048;-37
2023/07/25 07:13:19;;;;;;;3.60;1.30;;;20.00;80.60;;;;;;5008552;28;20049;-41
2023/07/25 07:15:46;;;;;;;1.63;1.00;;;20.40;81.70;;;;;;5020601;28;20042;-41
2023/07/25 07:18:12;;;;;;;2.95;1.30;;;20.60;73.90;;;;;;5016107;28;20049;-40
2023/07/25 07:20:40;;;;;;;1.17;1.08;;;;;;;;;;5012609;28;20129;-41
2023/07/25 07:23:07;;;;;;;1.77;1.23;;;;;;;;;;5008970;28;20129;-36
2023/07/25 07:25:36;;;;;;;2.38;1.30;;;20.70;81.20;;;;;;5011199;28;20050;-39
2023/07/25 07:28:03;;;;;;;1.98;1.20;;;21.30;81.10;;;;;;5012147;28;20510;-40
2023/07/25 07:30:30;;;;;;;2.58;1.33;;;;;;;;;;5012281;28;20081;-37
2023/07/25 07:32:57;;;;;;;2.10;1.17;;;20.40;75.50;;;;;;5011813;28;20046;-40
2023/07/25 07:35:24;;;;;;;2.38;1.23;;;20.50;81.00;;;;;;5023403;28;20049;-40
2023/07/25 07:37:51;;;;;;;3.75;1.38;;;20.70;71.10;;;;;;5031304;28;20049;-41
2023/07/25 07:40:17;;;;;;;3.92;1.23;;;20.30;81.50;;;;;;5031628;28;20102;-39
2023/07/25 07:42:45;;;;;;;2.13;1.10;;;20.70;80.90;;;;;;5031489;28;20053;-41
2023/07/25 07:45:12;;;;;;;3.15;1.20;;;20.60;80.80;;;;;;5031817;28;20124;-40
2023/07/25 07:47:39;;;;;;;1.83;1.20;;;;;;;;;;5031696;28;20541;-36
2023/07/25 07:50:07;;;;;;;1.65;0.98;;;20.60;80.90;;;;;;5023783;28;20531;-41
2023/07/25 07:52:34;;;;;;;2.65;1.27;;;21.30;67.60;;;;;;5024108;28;20046;-39
2023/07/25 07:55:00;;;;;;;2.33;1.20;;;20.40;80.60;;;;;;5011888;28;20474;-40
2023/07/25 07:57:27;;;;;;;2.63;1.40;;;;;;;;;;5011714;28;20124;-40
2023/07/25 07:59:55;;;;;;;2.45;1.20;;;21.20;80.40;;;;;;5016823;28;20121;-40
2023/07/25 08:02:23;;;;;;;1.98;1.05;;;;;;;;;;5031512;28;20129;-41
2023/07/25 08:04:49;;;;;;;2.30;1.20;;;20.10;80.60;;;;;;5028163;28;20117;-41
2023/07/25 08:07:16;;;;;;;2.72;1.60;;;19.40;71.50;;;;;;5022671;28;20121;-40
2023/07/25 08:09:43;;;;;;;4.85;1.20;;;20.20;79.90;;;;;;5017258;28;20125;-39
2023/07/25 08:12:09;;;;;;;3.10;1.40;;;20.50;81.10;;;;;;5021058;28;20140;-41
2023/07/25 08:14:36;;;;;;;2.38;1.10;;;20.40;70.30;;;;;;5020726;28;20046;-39
2023/07/25 08:17:04;;;;;;;3.72;1.40;;;20.50;80.30;;;;;;5030228;28;20149;-40
2023/07/25 08:19:32;;;;;;;2.90;1.10;;;20.30;80.60;;;;;;5026317;28;20049;-40
2023/07/25 08:21:59;;;;;;;1.80;1.20;;;21.10;80.60;;;;;;5037430;27;20090;-41
2023/07/25 08:24:26;;;;;;;1.75;1.13;;;20.70;81.00;;;;;;5011154;28;20140;-40
2023/07/25 08:26:53;;;;;;;1.25;1.00;;;;;;;;;;5011168;28;20046;-41
2023/07/25 08:29:20;;;;;;;2.00;0.95;;;21.10;81.60;;;;;;5069346;27;20047;-38
2023/07/25 08:31:47;;;;;;;2.30;1.25;;;;;;;;;;5050083;27;20140;-35
2023/07/25 08:34:15;;;;;;;2.22;1.02;;;20.80;81.30;;;;;;5019435;28;20132;-31
2023/07/25 08:36:41;;;;;;;1.85;1.25;;;20.40;80.20;;;;;;5021068;28;20128;-32
2023/07/25 08:39:08;;;;;;;2.67;1.30;;;20.50;80.90;;;;;;5030693;28;20498;-32
2023/07/25 08:41:37;;;;;;;2.05;1.13;;;20.80;64.60;;;;;;5023400;28;20140;-34
2023/07/25 08:44:04;;;;;;;1.30;1.10;;;20.70;80.10;;;;;;5010783;28;20119;-33
2023/07/25 08:46:30;;;;;;;1.63;1.00;;;20.70;80.60;;;;;;5017177;28;20049;-32
2023/07/25 08:49:00;;;;;;;1.90;1.00;;;21.20;71.60;;;;;;5030437;28;20133;-32
2023/07/25 08:51:28;;;;;;;2.55;1.15;;;20.90;64.20;;;;;;5029981;28;20149;-36
2023/07/25 08:53:59;;;;;;;2.03;1.20;;;20.90;64.10;;;;;;5030420;28;20124;-36
2023/07/25 08:56:27;;;;;;;1.95;1.10;;;;;;;;;;5030246;28;20072;-34
2023/07/25 08:58:59;;;;;;;2.92;1.15;;;20.90;64.10;;;;;;5014594;28;20049;-35
2023/07/25 09:01:26;;;;;;;1.60;1.00;;;;;;;;;;5010943;28;20053;-36
2023/07/25 09:03:52;;;;;;;1.55;1.10;;;21.90;80.10;;;;;;5010676;28;20132;-32
2023/07/25 09:06:19;;;;;;;1.98;1.17;;;21.30;80.40;;;;;;5015306;28;20128;-36
2023/07/25 09:08:47;;;;;;;2.22;1.00;;;21.10;68.90;;;;;;5011687;28;20137;-32
2023/07/25 09:26:05;;;;;;;1.85;1.10;;;22.00;66.20;;;;;;5033773;28;20035;-32
2023/07/25 09:28:51;;;;;;;1.52;1.17;;;21.20;63.40;;;;;;5030240;28;20182;-36
2023/07/25 09:31:19;;;;;;;3.40;1.10;;;21.60;80.30;;;;;;5025378;28;20550;-32
2023/07/25 09:34:05;;;;;;;2.08;1.10;;;20.20;77.20;;;;;;5016172;28;20049;-32
2023/07/25 09:36:51;;;;;;;3.13;1.20;;;;;;;;;;5017264;28;20578;-37
2023/07/25 09:39:17;;;;;;;1.95;1.10;;;21.40;79.80;;;;;;5020588;28;20488;-32
2023/07/25 09:42:05;;;;;;;1.33;0.95;;;22.00;66.70;;;;;;5018283;28;20049;-34
2023/07/25 09:44:32;;;;;;;2.08;1.10;;;21.40;63.30;;;;;;5021470;28;20133;-32
2023/07/25 09:47:21;;;;;;;1.27;0.98;;;21.50;79.30;;;;;;5017730;28;20183;-33
2023/07/25 09:49:48;;;;;;;1.10;0.90;;;21.40;78.60;;;;;;5018373;28;20085;-33
2023/07/25 09:52:40;;;;;;;1.17;1.02;;;21.20;78.50;;;;;;5020281;28;20048;-34
2023/07/25 09:55:08;;;;;;;2.00;1.00;;;21.50;63.00;;;;;;5019663;28;20132;-35
2023/07/25 09:57:51;;;;;;;2.22;1.02;;;21.10;79.10;;;;;;5020138;28;20440;-32
2023/07/25 10:00:18;;;;;;;1.73;0.90;;;22.30;78.90;;;;;;5018658;28;20048;-32
2023/07/25 10:02:45;;;;;;;2.80;1.05;;;21.30;78.70;;;;;;5019324;28;20057;-32
2023/07/25 10:05:12;;;;;;;2.78;1.00;;;21.90;71.50;;;;;;5020198;28;20463;-34
2023/07/25 10:07:38;;;;;;;0.80;0.73;;;21.20;78.80;;;;;;5021720;28;20045;-32
2023/07/25 10:10:06;;;;;;;1.63;1.15;;;21.50;79.10;;;;;;5019441;28;20164;-32
2023/07/25 10:12:32;;;;;;;3.08;1.42;;;22.10;78.40;;;;;;5019003;28;20129;-32
2023/07/25 10:15:00;;;;;;;2.65;1.10;;;21.20;77.90;;;;;;5022194;28;20133;-32
2023/07/25 10:17:27;;;;;;;1.77;0.82;;;21.20;62.60;;;;;;5018937;28;20077;-34
2023/07/25 10:19:55;;;;;;;1.60;1.00;;;21.80;62.80;;;;;;5027937;28;20124;-36
2023/07/25 10:22:34;;;;;;;1.25;0.90;;;21.80;62.80;;;;;;5028050;28;20073;-32
2023/07/25 10:25:01;;;;;;;1.40;0.75;;;22.00;78.20;;;;;;5029067;28;20137;-33
2023/07/25 10:27:28;;;;;;;2.60;1.40;;;;;;;;;;5013117;28;20154;-35
2023/07/25 10:30:01;;;;;;;1.42;0.90;;;21.70;64.20;;;;;;5011606;28;20053;-32
2023/07/25 10:32:43;;;;;;;2.88;1.13;;;21.60;78.20;;;;;;5028520;28;20057;-33
2023/07/25 10:35:09;;;;;;;2.08;1.20;;;21.60;78.80;;;;;;5018578;28;20557;-32
2023/07/25 10:37:42;;;;;;;1.77;0.98;;;21.70;62.90;;;;;;5028484;28;20072;-35
2023/07/25 10:40:13;;;;;;;1.40;0.90;;;21.90;78.40;;;;;;5028688;28;20453;-33
2023/07/25 10:42:44;;;;;;;1.95;0.98;;;21.30;78.20;;;;;;5025689;28;20132;-32
2023/07/25 10:45:51;;;;;;;1.75;0.90;;;21.70;75.60;;;;;;5029298;28;20081;-35
2023/07/25 10:48:45;;;;;;;3.72;1.17;;;22.80;78.90;;;;;;5028894;28;20053;-35
2023/07/25 10:51:13;;;;;;;1.60;1.00;;;22.10;79.30;;;;;;5033089;28;20045;-33
2023/07/25 10:53:40;;;;;;;1.80;1.55;;;22.90;78.70;;;;;;5012347;28;20050;-34
2023/07/25 10:56:13;;;;;;;1.17;0.90;;;21.40;73.40;;;;;;5008982;28;20149;-32
2023/07/25 10:58:55;;;;;;;1.10;0.77;;;21.40;78.10;;;;;;5009884;28;20472;-33
2023/07/25 11:01:46;;;;;;;1.52;1.20;;;21.70;62.90;;;;;;5012638;28;20121;-33
2023/07/25 11:04:23;;;;;;;1.65;0.90;;;21.60;78.10;;;;;;5012662;28;20060;-32
2023/07/25 11:06:50;;;;;;;1.40;0.95;;;22.70;78.90;;;;;;5021821;28;20512;-32
2023/07/25 11:09:17;;;;;;;0.90;0.70;;;21.70;78.50;;;;;;5032086;28;20128;-33
2023/07/25 11:11:44;;;;;;;1.40;0.90;;;21.70;62.90;;;;;;5018834;28;20476;-34
2023/07/25 11:14:13;;;;;;;1.42;0.90;;;21.60;62.90;;;;;;5030341;28;20045;-35
2023/07/25 11:16:41;;;;;;;2.55;0.90;;;21.60;62.90;;;;;;5031915;28;20057;-35
2023/07/25 11:19:08;;;;;;;2.13;0.80;;;;;;;;;;5032174;28;20060;-37
2023/07/25 11:21:37;;;;;;;1.58;0.93;;;22.50;63.40;;;;;;5031932;28;20128;-33
2023/07/25 11:24:04;;;;;;;1.58;0.80;;;21.40;70.20;;;;;;5031531;28;20137;-34
2023/07/25 11:26:31;;;;;;;1.35;1.00;;;22.20;78.70;;;;;;5032259;28;20046;-32
2023/07/25 11:29:03;;;;;;;1.98;0.93;;;21.50;63.00;;;;;;5031968;28;20121;-34
2023/07/25 11:31:29;;;;;;;0.93;0.80;;;21.70;78.40;;;;;;5031786;28;20052;-31
2023/07/25 11:33:57;;;;;;;1.85;1.00;;;21.60;63.00;;;;;;5031693;28;20444;-35
2023/07/25 11:36:24;;;;;;;1.25;0.80;;;;;;;;;;5031316;28;20050;-37
2023/07/25 11:38:51;;;;;;;1.00;0.80;;;20.50;77.90;;;;;;5031541;28;20058;-34
2023/07/25 11:41:18;;;;;;;1.58;0.80;;;21.80;78.80;;;;;;5021638;28;20487;-33
2023/07/25 11:43:44;;;;;;;1.10;0.90;;;21.50;64.80;;;;;;5011920;28;20057;-34
2023/07/25 11:46:15;;;;;;;2.67;0.90;;;22.00;78.30;;;;;;5012196;28;20050;-32
2023/07/25 11:48:42;;;;;;;1.63;1.00;;;21.60;78.20;;;;;;5011802;28;20132;-33
2023/07/25 11:51:10;;;;;;;1.10;0.85;;;21.60;62.90;;;;;;5011621;28;20053;-34
2023/07/25 11:53:37;;;;;;;2.10;0.90;;;;;;;;;;5018942;28;20056;-37
2023/07/25 11:56:04;;;;;;;1.40;0.90;;;20.90;69.10;;;;;;5020486;28;20133;-34
2023/07/25 11:58:31;;;;;;;1.35;0.93;;;;;;;;;;5021947;28;20128;-35
2023/07/25 12:00:58;;;;;;;1.02;0.90;;;22.50;79.00;;;;;;5020491;27;20074;-32
2023/07/25 12:03:25;;;;;;;1.75;1.10;;;21.20;70.00;;;;;;5024498;27;20148;-31
2023/07/25 12:05:53;;;;;;;1.67;1.08;;;21.00;78.20;;;;;;5021799;28;20120;-31
2023/07/25 12:08:31;;;;;;;2.55;0.85;;;22.10;78.30;;;;;;5020367;28;20046;-31
2023/07/25 12:11:02;;;;;;;1.60;0.98;;;20.70;77.70;;;;;;5024254;28;20045;-32
2023/07/25 12:13:29;;;;;;;3.65;1.08;;;;;;;;;;5020146;28;20129;-35
2023/07/25 12:15:57;;;;;;;1.92;0.80;;;;;;;;;;5020601;28;20101;-31
2023/07/25 12:18:27;;;;;;;1.92;0.90;;;21.80;62.90;;;;;;5018333;28;20091;-32
2023/07/25 12:20:54;;;;;;;1.75;1.15;;;22.70;79.00;;;;;;5019653;28;20038;-32
2023/07/25 12:23:27;;;;;;;1.08;0.80;;;21.90;79.10;;;;;;5011488;28;20064;-32
2023/07/25 12:25:55;;;;;;;1.80;1.00;;;21.80;72.20;;;;;;5025310;28;20053;-32
2023/07/25 12:28:22;;;;;;;1.27;0.85;;;;;;;;;;5031016;28;20049;-34
2023/07/25 12:30:49;;;;;;;2.15;0.90;;;22.10;78.40;;;;;;5030331;28;20045;-32
2023/07/25 12:33:16;;;;;;;1.00;0.80;;;;;;;;;;5031233;28;20060;-33
2023/07/25 12:35:43;;;;;;;1.88;1.00;;;20.90;77.90;;;;;;5031149;28;20087;-32
2023/07/25 12:38:10;;;;;;;2.10;1.00;;;22.00;68.60;;;;;;5030452;28;20625;-31
2023/07/25 12:40:36;;;;;;;1.77;0.95;;;22.00;70.60;;;;;;5030814;28;20144;-33
2023/07/25 12:43:04;;;;;;;1.05;0.82;;;22.90;78.80;;;;;;5030631;28;20483;-31
2023/07/25 12:45:31;;;;;;;1.48;1.00;;;21.90;78.30;;;;;;5030918;28;20106;-33
2023/07/25 12:47:58;;;;;;;1.00;0.80;;;22.00;71.60;;;;;;5016845;28;20137;-31
2023/07/25 12:50:25;;;;;;;2.85;0.80;;;21.70;75.40;;;;;;5010908;28;20471;-32
2023/07/25 12:52:52;;;;;;;1.20;0.77;;;21.80;78.30;;;;;;5010492;28;20046;-31
2023/07/25 12:55:19;;;;;;;2.17;0.93;;;;;;;;;;5010907;28;20056;-36
2023/07/25 12:57:45;;;;;;;2.28;1.00;;;22.20;79.30;;;;;;5029544;28;20124;-32
2023/07/25 13:00:15;;;;;;;1.77;1.00;;;22.50;79.50;;;;;;5031070;28;20055;-32
2023/07/25 13:02:42;;;;;;;1.15;1.05;;;22.20;78.60;;;;;;5030001;28;20490;-32
2023/07/25 13:05:09;;;;;;;1.05;0.70;;;21.50;78.50;;;;;;5030657;28;20128;-32
2023/07/25 13:07:35;;;;;;;0.70;0.70;;;22.30;78.30;;;;;;5019439;28;20045;-32
2023/07/25 13:10:04;;;;;;;1.50;0.98;;;21.90;79.20;;;;;;5030499;28;20056;-31
2023/07/25 13:12:30;;;;;;;1.30;0.80;;;22.10;79.30;;;;;;5029996;28;20080;-31
2023/07/25 13:14:57;;;;;;;2.13;0.98;;;;;;;;;;5030476;28;20128;-36
2023/07/25 13:17:25;;;;;;;1.27;0.82;;;21.50;78.00;;;;;;5014268;28;20076;-31
2023/07/25 13:19:52;;;;;;;1.83;1.00;;;21.50;78.30;;;;;;5010501;28;20133;-32
2023/07/25 13:22:19;;;;;;;1.52;0.80;;;21.50;78.10;;;;;;5009173;28;20144;-32
2023/07/25 13:24:46;;;;;;;2.78;0.80;;;20.90;65.10;;;;;;5018102;28;20053;-33
2023/07/25 13:27:13;;;;;;;1.50;0.80;;;;;;;;;;5029965;28;20508;-34
2023/07/25 13:29:40;;;;;;;2.20;1.00;;;;;;;;;;5027386;28;20486;-36